createdAt,value
2024-05-09T00:02:23.198Z,11.81
2024-05-09T00:04:53.131Z,11.81
2024-05-09T00:07:23.419Z,11.83
2024-05-09T00:09:55.727Z,11.82
2024-05-09T00:12:25.589Z,11.83
2024-05-09T00:14:55.329Z,11.82
2024-05-09T00:17:25.237Z,11.85
2024-05-09T00:19:55.023Z,11.89
2024-05-09T00:22:24.754Z,11.87
2024-05-09T00:24:57.051Z,11.85
2024-05-09T00:27:26.801Z,11.86
2024-05-09T00:29:56.476Z,11.86
2024-05-09T00:32:26.405Z,11.84
2024-05-09T00:34:56.305Z,11.82
2024-05-09T00:37:26.065Z,11.76
2024-05-09T00:39:58.420Z,11.74
2024-05-09T00:42:28.092Z,11.71
2024-05-09T00:44:57.735Z,11.70
2024-05-09T00:47:27.688Z,11.70
2024-05-09T00:49:57.579Z,11.72
2024-05-09T00:52:27.964Z,11.75
2024-05-09T00:55:00.825Z,11.73
2024-05-09T00:57:30.905Z,11.69
2024-05-09T01:00:01.262Z,11.69
2024-05-09T01:02:32.563Z,11.73
2024-05-09T01:05:02.708Z,11.76
2024-05-09T01:07:32.558Z,11.73
2024-05-09T01:10:09.075Z,11.64
2024-05-09T01:12:41.398Z,11.60
2024-05-09T01:15:11.177Z,11.62
2024-05-09T01:17:41.727Z,11.63
2024-05-09T01:20:19.867Z,11.64
2024-05-09T01:22:55.543Z,11.64
2024-05-09T01:25:27.832Z,11.64
2024-05-09T01:27:57.529Z,11.67
2024-05-09T01:30:33.891Z,11.67
2024-05-09T01:33:07.902Z,11.67
2024-05-09T01:35:41.788Z,11.60
2024-05-09T01:38:13.648Z,11.60
2024-05-09T01:40:46.834Z,11.60
2024-05-09T01:43:16.773Z,11.57
2024-05-09T01:45:46.423Z,11.60
2024-05-09T01:48:16.367Z,11.62
2024-05-09T01:50:46.191Z,11.62
2024-05-09T01:53:17.392Z,11.58
2024-05-09T01:55:49.789Z,11.45
2024-05-09T01:58:19.530Z,11.42
2024-05-09T02:00:49.214Z,11.44
2024-05-09T02:03:19.393Z,11.42
2024-05-09T02:05:50.598Z,11.43
2024-05-09T02:08:22.815Z,11.47
2024-05-09T02:10:55.261Z,11.47
2024-05-09T02:13:25.082Z,11.47
2024-05-09T02:15:55.363Z,11.49
2024-05-09T02:18:25.337Z,11.52
2024-05-09T02:20:55.158Z,11.51
2024-05-09T02:23:24.911Z,11.52
2024-05-09T02:25:57.246Z,11.57
2024-05-09T02:28:26.976Z,11.58
2024-05-09T02:30:56.604Z,11.59
2024-05-09T02:33:26.591Z,11.58
2024-05-09T02:35:56.420Z,11.55
2024-05-09T02:38:24.167Z,11.49
2024-05-09T02:40:53.879Z,11.47
2024-05-09T02:43:26.467Z,11.50
2024-05-09T02:45:53.565Z,11.36
2024-05-09T02:48:23.372Z,11.41
2024-05-09T02:50:52.086Z,11.28
2024-05-09T02:53:22.450Z,11.29
2024-05-09T02:55:49.613Z,11.31
2024-05-09T02:58:19.333Z,11.36
2024-05-09T03:00:49.017Z,11.41
2024-05-09T03:03:18.972Z,11.32
2024-05-09T03:05:46.822Z,11.31
2024-05-09T03:08:16.932Z,11.54
2024-05-09T03:10:44.186Z,11.58
2024-05-09T03:13:16.384Z,11.59
2024-05-09T03:15:44.033Z,11.58
2024-05-09T03:18:16.554Z,11.61
2024-05-09T03:20:44.784Z,11.62
2024-05-09T03:23:14.774Z,11.62
2024-05-09T03:25:41.863Z,11.60
2024-05-09T03:28:11.584Z,11.52
2024-05-09T03:30:42.125Z,11.42
2024-05-09T03:33:19.254Z,11.47
2024-05-09T03:35:48.976Z,11.36
2024-05-09T03:38:19.317Z,11.42
2024-05-09T03:40:50.823Z,11.38
2024-05-09T03:43:21.927Z,11.34
2024-05-09T03:45:50.167Z,11.29
2024-05-09T03:48:22.679Z,11.36
2024-05-09T03:50:50.780Z,11.39
2024-05-09T03:53:20.571Z,11.36
2024-05-09T03:55:47.756Z,11.35
2024-05-09T03:58:19.077Z,11.36
2024-05-09T04:00:46.421Z,11.40
2024-05-09T04:03:16.638Z,11.43
2024-05-09T04:05:46.721Z,11.40
2024-05-09T04:08:17.374Z,11.36
2024-05-09T04:10:44.730Z,11.43
2024-05-09T04:13:14.509Z,11.48
2024-05-09T04:15:41.744Z,11.53
2024-05-09T04:18:12.776Z,11.55
2024-05-09T04:20:41.191Z,11.59
2024-05-09T04:23:15.668Z,11.60
2024-05-09T04:25:45.150Z,11.61
2024-05-09T04:28:15.690Z,11.59
2024-05-09T04:30:43.437Z,11.62
2024-05-09T04:33:14.785Z,11.64
2024-05-09T04:35:43.732Z,11.65
2024-05-09T04:38:16.539Z,11.67
2024-05-09T04:40:44.040Z,11.70
2024-05-09T04:43:19.036Z,11.66
2024-05-09T04:45:46.398Z,11.70
2024-05-09T04:48:16.658Z,11.75
2024-05-09T04:50:44.315Z,11.81
2024-05-09T04:53:19.057Z,11.83
2024-05-09T04:55:46.308Z,11.79
2024-05-09T04:58:16.050Z,11.73
2024-05-09T05:00:43.261Z,11.80
2024-05-09T05:03:16.016Z,11.83
2024-05-09T05:05:45.454Z,11.90
2024-05-09T05:08:19.705Z,11.77
2024-05-09T05:10:48.392Z,11.81
2024-05-09T05:13:20.567Z,11.70
2024-05-09T05:15:50.040Z,11.75
2024-05-09T05:18:20.333Z,11.85
2024-05-09T05:20:47.980Z,11.91
2024-05-09T05:23:22.200Z,11.95
2024-05-09T05:25:51.173Z,12.05
2024-05-09T05:28:22.064Z,11.90
2024-05-09T05:30:49.897Z,11.93
2024-05-09T05:33:22.597Z,11.99
2024-05-09T05:35:50.356Z,12.01
2024-05-09T05:38:26.105Z,12.12
2024-05-09T05:40:55.318Z,12.11
2024-05-09T05:43:25.139Z,12.04
2024-05-09T05:45:52.269Z,12.11
2024-05-09T05:48:22.234Z,12.11
2024-05-09T05:50:49.518Z,12.19
2024-05-09T05:53:21.870Z,12.28
2024-05-09T05:55:48.950Z,12.54
2024-05-09T05:58:20.335Z,12.71
2024-05-09T06:00:48.235Z,12.78
2024-05-09T06:03:18.067Z,13.05
2024-05-09T06:05:46.706Z,12.96
2024-05-09T06:08:17.021Z,13.18
2024-05-09T06:10:46.907Z,13.34
2024-05-09T06:13:16.883Z,13.34
2024-05-09T06:15:44.198Z,13.61
2024-05-09T06:18:14.666Z,13.78
2024-05-09T06:20:43.302Z,13.49
2024-05-09T06:23:14.664Z,13.71
2024-05-09T06:25:42.534Z,13.98
2024-05-09T06:28:15.210Z,14.04
2024-05-09T06:30:43.332Z,14.25
2024-05-09T06:33:16.054Z,13.87
2024-05-09T06:35:45.041Z,14.13
2024-05-09T06:38:15.047Z,13.98
2024-05-09T06:40:43.939Z,14.41
2024-05-09T06:43:19.453Z,14.77
2024-05-09T06:45:48.351Z,14.89
2024-05-09T06:48:22.071Z,14.59
2024-05-09T06:50:50.313Z,14.88
2024-05-09T06:53:23.152Z,15.14
2024-05-09T06:55:50.603Z,15.37
2024-05-09T06:58:22.911Z,15.51
2024-05-09T07:00:50.117Z,15.63
2024-05-09T07:03:20.234Z,15.32
2024-05-09T07:05:49.143Z,15.56
2024-05-09T07:08:20.109Z,15.58
2024-05-09T07:10:47.510Z,15.46
2024-05-09T07:13:17.937Z,15.61
2024-05-09T07:15:47.749Z,15.68
2024-05-09T07:18:20.217Z,15.50
2024-05-09T07:20:49.435Z,15.76
2024-05-09T07:23:20.576Z,15.97
2024-05-09T07:25:47.935Z,16.07
2024-05-09T07:28:19.838Z,16.11
2024-05-09T07:30:49.572Z,15.97
2024-05-09T07:33:21.781Z,16.08
2024-05-09T07:35:50.488Z,16.14
2024-05-09T07:38:20.370Z,16.08
2024-05-09T07:40:47.733Z,16.17
2024-05-09T07:43:17.605Z,16.07
2024-05-09T07:45:52.318Z,16.05
2024-05-09T07:50:00.325Z,15.99
2024-05-09T07:53:53.263Z,16.56
2024-05-09T07:56:24.211Z,16.71
2024-05-09T07:58:55.642Z,16.97
2024-05-09T08:01:25.841Z,17.00
2024-05-09T08:03:58.764Z,16.90
2024-05-09T08:06:26.461Z,16.76
2024-05-09T08:08:57.900Z,16.90
2024-05-09T08:11:26.264Z,17.22
2024-05-09T08:13:55.954Z,17.19
2024-05-09T08:16:23.232Z,16.94
2024-05-09T08:18:53.186Z,17.37
2024-05-09T08:21:23.006Z,17.11
2024-05-09T08:23:52.718Z,17.47
2024-05-09T08:26:19.823Z,17.27
2024-05-09T08:28:49.681Z,17.50
2024-05-09T08:31:16.894Z,17.58
2024-05-09T08:33:47.670Z,17.88
2024-05-09T08:36:15.148Z,18.26
2024-05-09T08:38:47.568Z,18.39
2024-05-09T08:41:15.414Z,18.69
2024-05-09T08:43:47.320Z,18.83
2024-05-09T08:46:14.768Z,18.62
2024-05-09T08:48:46.245Z,18.28
2024-05-09T08:51:14.750Z,17.50
2024-05-09T08:53:47.219Z,17.41
2024-05-09T08:56:16.476Z,18.15
2024-05-09T08:58:48.188Z,18.61
2024-05-09T09:01:18.260Z,18.13
2024-05-09T09:03:50.189Z,17.77
2024-05-09T09:06:22.028Z,17.49
2024-05-09T09:08:54.877Z,18.06
2024-05-09T09:11:22.053Z,18.63
2024-05-09T09:13:52.008Z,18.96
2024-05-09T09:16:32.914Z,18.57
2024-05-09T09:19:03.146Z,18.73
2024-05-09T09:21:30.498Z,18.01
2024-05-09T09:24:02.818Z,18.34
2024-05-09T09:26:33.727Z,18.48
2024-05-09T09:29:01.816Z,18.47
2024-05-09T09:31:32.819Z,18.51
2024-05-09T09:34:07.531Z,19.27
2024-05-09T09:36:41.320Z,19.84
2024-05-09T09:39:14.185Z,19.55
2024-05-09T09:41:50.536Z,18.94
2024-05-09T09:44:19.696Z,18.42
2024-05-09T09:46:51.211Z,18.43
2024-05-09T09:49:19.560Z,18.23
2024-05-09T09:51:50.782Z,18.62
2024-05-09T09:54:21.700Z,18.65
2024-05-09T09:56:53.951Z,17.95
2024-05-09T09:59:22.010Z,17.45
2024-05-09T10:01:52.495Z,17.35
2024-05-09T10:04:20.209Z,17.54
2024-05-09T10:06:54.725Z,18.07
2024-05-09T10:09:24.993Z,17.93
2024-05-09T10:12:00.143Z,17.99
2024-05-09T10:14:30.928Z,18.57
2024-05-09T10:17:07.333Z,18.58
2024-05-09T10:19:35.290Z,18.17
2024-05-09T10:22:06.320Z,18.25
2024-05-09T10:24:51.263Z,18.11
2024-05-09T10:27:29.871Z,18.26
2024-05-09T10:29:58.723Z,19.08
2024-05-09T10:32:32.824Z,18.75
2024-05-09T10:35:01.064Z,19.26
2024-05-09T10:37:31.736Z,19.90
2024-05-09T10:40:05.440Z,19.92
2024-05-09T10:42:37.615Z,19.48
2024-05-09T10:45:05.423Z,19.61
2024-05-09T10:47:35.323Z,18.14
2024-05-09T10:50:06.024Z,17.82
2024-05-09T10:52:37.828Z,17.52
2024-05-09T10:55:07.930Z,17.99
2024-05-09T10:57:42.011Z,18.28
2024-05-09T11:00:15.950Z,18.72
2024-05-09T11:02:53.318Z,19.05
2024-05-09T11:05:21.678Z,19.63
2024-05-09T11:07:51.990Z,19.07
2024-05-09T11:10:27.767Z,19.64
2024-05-09T11:13:03.656Z,20.63
2024-05-09T11:15:38.178Z,20.60
2024-05-09T11:18:08.651Z,20.14
2024-05-09T11:20:36.151Z,19.82
2024-05-09T11:23:07.916Z,19.15
2024-05-09T11:25:37.999Z,18.84
2024-05-09T11:28:08.953Z,18.77
2024-05-09T11:30:36.196Z,18.77
2024-05-09T11:33:06.346Z,19.27
2024-05-09T11:35:34.459Z,20.12
2024-05-09T11:38:04.408Z,20.51
2024-05-09T11:43:04.388Z,21.34
2024-05-09T11:45:31.509Z,21.46
2024-05-09T11:48:01.494Z,20.98
2024-05-09T11:50:33.124Z,20.78
2024-05-09T11:53:05.538Z,20.07
2024-05-09T11:55:36.472Z,19.82
2024-05-09T11:58:09.704Z,20.54
2024-05-09T12:00:37.872Z,21.24
2024-05-09T12:03:08.721Z,21.86
2024-05-09T12:05:35.975Z,21.66
2024-05-09T12:08:06.148Z,21.29
2024-05-09T12:10:35.639Z,20.71
2024-05-09T12:13:09.319Z,20.04
2024-05-09T12:15:38.096Z,19.57
2024-05-09T12:18:09.365Z,19.43
2024-05-09T12:20:39.298Z,19.22
2024-05-09T12:23:11.245Z,19.83
2024-05-09T12:25:41.733Z,20.36
2024-05-09T12:28:11.662Z,21.21
2024-05-09T12:30:41.899Z,21.84
2024-05-09T12:33:11.304Z,22.26
2024-05-09T12:35:44.631Z,21.94
2024-05-09T12:38:14.039Z,20.80
2024-05-09T12:40:43.942Z,20.41
2024-05-09T12:43:13.832Z,20.90
2024-05-09T12:45:43.876Z,21.58
2024-05-09T12:48:12.450Z,21.79
2024-05-09T12:50:43.532Z,21.55
2024-05-09T12:53:11.014Z,21.62
2024-05-09T12:55:48.658Z,21.71
2024-05-09T13:06:04.391Z,22.03
2024-05-09T13:08:31.891Z,21.39
2024-05-09T13:11:01.911Z,21.39
2024-05-09T13:13:29.229Z,21.62
2024-05-09T13:15:59.310Z,21.70
2024-05-09T13:18:26.718Z,21.41
2024-05-09T13:20:56.435Z,20.77
2024-05-09T13:23:26.444Z,20.94
2024-05-09T13:25:56.374Z,21.31
2024-05-09T13:28:23.696Z,21.52
2024-05-09T13:30:53.774Z,21.42
2024-05-09T13:33:23.834Z,21.46
2024-05-09T13:35:51.356Z,21.36
2024-05-09T13:38:22.487Z,21.57
2024-05-09T13:40:52.704Z,21.71
2024-05-09T13:43:23.683Z,21.37
2024-05-09T13:45:52.217Z,21.10
2024-05-09T13:48:22.378Z,21.40
2024-05-09T13:50:49.680Z,21.26
2024-05-09T13:53:19.586Z,21.36
2024-05-09T13:55:47.037Z,21.64
2024-05-09T13:58:20.226Z,21.94
2024-05-09T14:00:49.082Z,21.71
2024-05-09T14:03:21.028Z,21.70
2024-05-09T14:05:50.122Z,21.88
2024-05-09T14:08:22.457Z,21.63
2024-05-09T14:10:50.759Z,21.69
2024-05-09T14:13:23.535Z,21.52
2024-05-09T14:15:51.161Z,21.71
2024-05-09T14:18:21.335Z,22.16
2024-05-09T14:20:48.413Z,21.91
2024-05-09T14:23:20.822Z,22.18
2024-05-09T14:25:52.044Z,22.43
2024-05-09T14:28:27.028Z,22.43
2024-05-09T14:30:56.620Z,22.31
2024-05-09T14:33:27.518Z,22.42
2024-05-09T14:35:54.880Z,22.11
2024-05-09T14:38:26.336Z,21.90
2024-05-09T14:40:54.364Z,21.84
2024-05-09T14:43:27.207Z,22.25
2024-05-09T14:45:56.144Z,22.58
2024-05-09T14:48:27.184Z,22.55
2024-05-09T14:50:54.704Z,22.71
2024-05-09T14:53:26.513Z,22.87
2024-05-09T14:55:54.086Z,22.80
2024-05-09T14:58:26.707Z,22.36
2024-05-09T15:00:54.046Z,22.11
2024-05-09T15:03:23.898Z,22.20
2024-05-09T15:05:51.820Z,22.41
2024-05-09T15:08:22.216Z,22.93
2024-05-09T15:10:50.557Z,22.92
2024-05-09T15:13:21.286Z,23.65
2024-05-09T15:15:51.457Z,22.92
2024-05-09T15:18:21.838Z,22.79
2024-05-09T15:20:49.459Z,23.29
2024-05-09T15:23:19.471Z,22.99
2024-05-09T15:25:46.867Z,23.29
2024-05-09T15:28:17.041Z,23.02
2024-05-09T15:30:46.517Z,23.53
2024-05-09T15:33:19.615Z,24.06
2024-05-09T15:35:47.330Z,24.13
2024-05-09T15:38:18.782Z,24.43
2024-05-09T15:40:46.244Z,24.52
2024-05-09T15:43:16.397Z,23.40
2024-05-09T15:45:43.557Z,23.19
2024-05-09T15:48:14.482Z,23.27
2024-05-09T15:50:44.891Z,23.43
2024-05-09T15:53:15.745Z,23.22
2024-05-09T15:55:43.894Z,23.63
2024-05-09T15:58:14.554Z,24.29
2024-05-09T16:00:44.778Z,23.91
2024-05-09T16:03:16.685Z,23.24
2024-05-09T16:05:47.993Z,23.05
2024-05-09T16:08:18.893Z,22.64
2024-05-09T16:10:47.377Z,21.71
2024-05-09T16:13:19.725Z,21.92
2024-05-09T16:15:47.343Z,22.83
2024-05-09T16:18:17.901Z,23.05
2024-05-09T16:20:50.040Z,22.64
2024-05-09T16:23:20.452Z,22.53
2024-05-09T16:25:48.314Z,22.35
2024-05-09T16:28:19.388Z,22.64
2024-05-09T16:30:47.407Z,23.24
2024-05-09T16:33:19.374Z,23.64
2024-05-09T16:35:49.736Z,24.05
2024-05-09T16:38:19.700Z,24.07
2024-05-09T16:40:47.530Z,24.07
2024-05-09T16:43:17.623Z,23.87
2024-05-09T16:45:45.099Z,23.66
2024-05-09T16:48:16.256Z,23.51
2024-05-09T16:50:43.776Z,23.45
2024-05-09T16:53:16.515Z,23.63
2024-05-09T16:55:43.836Z,23.80
2024-05-09T16:58:14.468Z,24.04
2024-05-09T17:00:43.647Z,24.36
2024-05-09T17:03:16.570Z,24.36
2024-05-09T17:05:46.437Z,24.13
2024-05-09T17:08:20.676Z,24.11
2024-05-09T17:10:49.465Z,23.96
2024-05-09T17:13:20.211Z,23.87
2024-05-09T17:15:48.119Z,23.27
2024-05-09T17:18:18.544Z,23.00
2024-05-09T17:20:45.772Z,23.04
2024-05-09T17:23:15.644Z,23.07
2024-05-09T17:25:45.473Z,23.10
2024-05-09T17:28:15.488Z,23.12
2024-05-09T17:30:43.221Z,23.08
2024-05-09T17:33:13.899Z,23.04
2024-05-09T17:35:41.420Z,23.01
2024-05-09T17:38:11.670Z,22.88
2024-05-09T17:40:39.498Z,22.60
2024-05-09T17:43:12.914Z,22.75
2024-05-09T17:45:41.158Z,22.54
2024-05-09T17:48:13.209Z,22.61
2024-05-09T17:50:41.633Z,22.55
2024-05-09T17:53:12.176Z,22.38
2024-05-09T17:55:39.856Z,22.35
2024-05-09T17:58:12.853Z,22.23
2024-05-09T18:00:42.338Z,22.10
2024-05-09T18:03:14.488Z,21.67
2024-05-09T18:05:43.322Z,21.22
2024-05-09T18:08:14.244Z,21.02
2024-05-09T18:10:42.299Z,20.64
2024-05-09T18:13:15.704Z,20.25
2024-05-09T18:15:43.695Z,19.99
2024-05-09T18:18:14.244Z,19.77
2024-05-09T18:20:44.929Z,19.61
2024-05-09T18:23:18.281Z,19.57
2024-05-09T18:25:46.860Z,19.35
2024-05-09T18:28:19.917Z,19.16
2024-05-09T18:30:47.198Z,18.75
2024-05-09T18:33:17.336Z,18.51
2024-05-09T18:35:45.492Z,18.33
2024-05-09T18:38:15.755Z,18.12
2024-05-09T18:40:45.091Z,17.84
2024-05-09T18:43:26.214Z,17.56
2024-05-09T18:45:58.758Z,17.22
2024-05-09T18:48:28.840Z,17.01
2024-05-09T18:50:56.692Z,16.87
2024-05-09T18:53:26.416Z,16.63
2024-05-09T18:55:53.606Z,16.52
2024-05-09T18:58:26.272Z,16.35
2024-05-09T19:00:58.392Z,16.21
2024-05-09T19:03:27.341Z,16.10
2024-05-09T19:05:57.500Z,16.02
2024-05-09T19:08:24.616Z,15.95
2024-05-09T19:10:54.500Z,15.74
2024-05-09T19:13:25.310Z,15.63
2024-05-09T19:15:55.453Z,15.58
2024-05-09T19:18:22.977Z,15.55
2024-05-09T19:20:53.130Z,15.60
2024-05-09T19:23:20.499Z,15.63
2024-05-09T19:25:50.409Z,15.50
2024-05-09T19:28:17.814Z,15.45
2024-05-09T19:30:50.577Z,15.40
2024-05-09T19:33:18.218Z,15.43
2024-05-09T19:35:48.580Z,15.38
2024-05-09T19:38:15.906Z,15.34
2024-05-09T19:40:45.747Z,15.30
2024-05-09T19:43:13.031Z,15.27
2024-05-09T19:45:43.782Z,15.19
2024-05-09T19:48:14.176Z,15.16
2024-05-09T19:50:45.181Z,15.13
2024-05-09T19:53:13.591Z,15.03
2024-05-09T19:55:43.527Z,14.97
2024-05-09T19:58:12.257Z,14.86
2024-05-09T20:00:44.212Z,14.81
2024-05-09T20:03:15.936Z,14.71
2024-05-09T20:05:47.846Z,14.71
2024-05-09T20:08:15.455Z,14.73
2024-05-09T20:10:45.772Z,14.67
2024-05-09T20:13:14.408Z,14.63
2024-05-09T20:15:44.387Z,14.58
2024-05-09T20:18:14.476Z,14.60
2024-05-09T20:20:45.490Z,14.57
2024-05-09T20:23:13.754Z,14.46
2024-05-09T20:25:44.428Z,14.42
2024-05-09T20:28:11.858Z,14.35
2024-05-09T20:30:41.743Z,14.30
2024-05-09T20:33:09.981Z,14.31
2024-05-09T20:35:42.984Z,14.28
2024-05-09T20:38:10.263Z,14.21
2024-05-09T20:40:40.252Z,14.20
2024-05-09T20:43:08.988Z,14.22
2024-05-09T20:45:39.852Z,14.30
2024-05-09T20:48:08.928Z,14.32
2024-05-09T20:50:41.587Z,14.39
2024-05-09T20:53:13.960Z,14.34
2024-05-09T20:55:45.355Z,14.27
2024-05-09T20:58:13.414Z,14.20
2024-05-09T21:00:45.585Z,14.19
2024-05-09T21:03:16.255Z,14.14
2024-05-09T21:05:47.696Z,14.10
2024-05-09T21:08:18.048Z,14.07
2024-05-09T21:10:48.269Z,14.01
2024-05-09T21:13:15.590Z,14.01
2024-05-09T21:15:45.668Z,14.00
2024-05-09T21:18:12.921Z,13.92
2024-05-09T21:20:42.748Z,13.94
2024-05-09T21:23:09.992Z,13.99
2024-05-09T21:25:42.348Z,14.04
2024-05-09T21:28:09.579Z,14.02
2024-05-09T21:30:42.488Z,13.95
2024-05-09T21:33:12.959Z,13.79
2024-05-09T21:36:17.365Z,13.54
2024-05-09T21:38:44.424Z,13.33
2024-05-09T21:41:16.756Z,13.21
2024-05-09T21:43:43.850Z,13.25
2024-05-09T21:46:13.695Z,13.28
2024-05-09T21:49:08.594Z,13.32
2024-05-09T21:51:38.318Z,13.42
2024-05-09T21:54:05.424Z,13.44
2024-05-09T21:56:37.918Z,13.43
2024-05-09T21:59:05.145Z,13.25
2024-05-09T22:01:36.073Z,13.00
2024-05-09T22:04:03.483Z,12.90
2024-05-09T22:06:33.541Z,12.84
2024-05-09T22:09:05.011Z,12.92
2024-05-09T22:11:37.412Z,12.98
2024-05-09T22:14:04.551Z,13.05
2024-05-09T22:16:34.396Z,13.10
2024-05-09T22:19:01.657Z,13.03
2024-05-09T22:21:31.492Z,12.87
2024-05-09T22:23:58.605Z,12.78
2024-05-09T22:26:28.463Z,12.76
2024-05-09T22:28:58.208Z,12.78
2024-05-09T22:31:28.057Z,12.80
2024-05-09T22:33:55.735Z,12.91
2024-05-09T22:36:26.063Z,13.06
2024-05-09T22:38:53.256Z,13.13
2024-05-09T22:41:23.107Z,13.11
2024-05-09T22:43:50.190Z,13.04
2024-05-09T22:46:22.680Z,12.95
2024-05-09T22:48:49.881Z,12.86
2024-05-09T22:51:19.768Z,12.87
2024-05-09T22:53:46.875Z,12.85
2024-05-09T22:56:17.949Z,12.88
2024-05-09T22:58:45.073Z,12.83
2024-05-09T23:01:17.555Z,12.83
2024-05-09T23:03:47.786Z,12.81
2024-05-09T23:06:17.798Z,12.84
2024-05-09T23:08:44.961Z,12.86
2024-05-09T23:11:14.867Z,12.93
2024-05-09T23:13:42.200Z,12.98
2024-05-09T23:16:13.196Z,13.01
2024-05-09T23:18:40.504Z,13.01
2024-05-09T23:21:12.956Z,12.79
2024-05-09T23:23:40.105Z,12.53
2024-05-09T23:26:09.889Z,12.45
2024-05-09T23:28:37.138Z,12.42
2024-05-09T23:31:07.786Z,12.45
2024-05-09T23:33:35.066Z,12.40
2024-05-09T23:36:05.408Z,12.46
2024-05-09T23:38:35.118Z,12.41
2024-05-09T23:41:04.843Z,12.25
2024-05-09T23:43:32.023Z,12.18
2024-05-09T23:46:02.095Z,12.13
2024-05-09T23:48:29.375Z,11.97
2024-05-09T23:50:59.117Z,11.78
2024-05-09T23:54:16.201Z,11.63
2024-05-09T23:56:48.515Z,11.48
2024-05-09T23:59:15.662Z,11.39
